Time;durP1;ratioP1;P1;durP2;ratioP2;P2;SDS_P1;SDS_P2;PMS_P1;PMS_P2;Temp;Humidity;BMP_temperature;BMP_pressure;BME280_temperature;BME280_humidity;BME280_pressure;Samples;Min_cycle;Max_cycle;Signal;HPM_P1;HPM_P2
2022/04/25 00:01:30;;;;;;;24.87;20.10;;;;;;;11.56;99.37;97091.16;4118438;28;21164;-88
2022/04/25 00:03:33;;;;;;;23.40;19.60;;;;;;;11.56;100.00;97093.78;4105600;28;20675;-88
2022/04/25 00:05:37;;;;;;;24.93;19.83;;;;;;;11.57;100.00;97103.28;4121245;28;21230;-88
2022/04/25 00:07:40;;;;;;;25.47;20.30;;;;;;;11.57;99.49;97095.44;4106351;28;20663;-88
2022/04/25 00:09:44;;;;;;;23.50;19.53;;;;;;;11.57;99.51;97093.66;4121305;28;21280;-88
2022/04/25 00:11:49;;;;;;;25.07;19.90;;;;;;;11.58;100.00;97097.91;4116364;28;20647;-88
2022/04/25 00:13:52;;;;;;;26.33;20.77;;;;;;;11.58;100.00;97092.69;4121024;28;20669;-88
2022/04/25 00:15:56;;;;;;;29.77;24.00;;;;;;;11.60;100.00;97095.16;4125073;28;20645;-89
2022/04/25 00:17:59;;;;;;;30.00;23.77;;;;;;;11.60;100.00;97095.16;4104936;28;20646;-88
2022/04/25 00:20:03;;;;;;;33.17;26.20;;;;;;;11.60;100.00;97095.16;4119079;28;20693;-88
2022/04/25 00:22:06;;;;;;;34.70;27.20;;;;;;;11.59;100.00;97090.91;4104813;28;20631;-88
2022/04/25 00:24:10;;;;;;;36.03;27.23;;;;;;;11.58;99.71;97100.53;4106586;28;20650;-88
2022/04/25 00:26:13;;;;;;;33.47;26.80;;;;;;;11.58;99.41;97100.53;4109231;28;20640;-88
2022/04/25 00:28:18;;;;;;;35.47;28.10;;;;;;;11.57;100.00;97098.88;4122815;28;20975;-89
2022/04/25 00:30:22;;;;;;;33.00;27.00;;;;;;;11.59;100.00;97109.19;4118865;28;21825;-88
2022/04/25 00:32:25;;;;;;;36.63;28.83;;;;;;;11.57;100.00;97100.66;4120397;28;20740;-88
2022/04/25 00:34:28;;;;;;;35.77;28.00;;;;;;;11.58;100.00;97107.53;4087892;28;21309;-88
2022/04/25 00:36:32;;;;;;;36.90;29.17;;;;;;;11.58;99.97;97099.72;4103056;28;20702;-88
2022/04/25 00:38:35;;;;;;;38.23;29.20;;;;;;;11.58;99.93;97097.09;4111436;28;20655;-89
2022/04/25 00:40:39;;;;;;;40.27;31.27;;;;;;;11.57;99.16;97104.09;4104964;28;20643;-88
2022/04/25 00:42:42;;;;;;;39.70;31.13;;;;;;;11.59;100.00;97104.81;4121065;28;20640;-88
2022/04/25 00:44:49;;;;;;;39.80;30.47;;;;;;;11.59;100.00;97106.56;4120402;28;20664;-88
2022/04/25 00:46:54;;;;;;;37.50;30.17;;;;;;;11.60;100.00;97106.44;4105027;28;20730;-88
2022/04/25 00:48:58;;;;;;;41.40;31.33;;;;;;;11.60;99.42;97109.03;4117741;28;21325;-89
2022/04/25 00:51:01;;;;;;;44.63;31.90;;;;;;;11.58;99.74;97105.75;4109048;28;20630;-88
2022/04/25 00:53:05;;;;;;;41.17;31.90;;;;;;;11.58;100.00;97105.75;4119818;28;20690;-88
2022/04/25 00:55:10;;;;;;;41.50;32.50;;;;;;;11.58;100.00;97102.31;4120321;28;20718;-88
2022/04/25 00:57:13;;;;;;;43.03;32.60;;;;;;;11.60;100.00;97110.84;4116627;28;21236;-88
2022/04/25 00:59:18;;;;;;;44.77;32.67;;;;;;;11.58;99.83;97107.53;4102110;28;20636;-88
2022/04/25 01:01:24;;;;;;;44.10;33.63;;;;;;;11.58;99.70;97112.78;4120472;28;20674;-88
2022/04/25 01:03:29;;;;;;;43.40;33.10;;;;;;;11.57;99.99;97109.31;4108357;28;20867;-88
2022/04/25 01:05:32;;;;;;;43.37;33.00;;;;;;;11.59;100.00;97106.56;4105209;28;21002;-88
2022/04/25 01:07:37;;;;;;;43.00;33.43;;;;;;;11.57;99.95;97105.88;4107328;28;20644;-88
2022/04/25 01:09:40;;;;;;;46.00;34.60;;;;;;;11.56;100.00;97104.22;4089779;28;20641;-88
2022/04/25 01:11:43;;;;;;;43.90;33.60;;;;;;;11.51;99.64;97098.59;4119748;28;20650;-88
2022/04/25 01:13:47;;;;;;;46.17;35.10;;;;;;;11.51;99.33;97104.63;4120918;28;20645;-88
2022/04/25 01:15:50;;;;;;;43.10;34.47;;;;;;;11.50;100.00;97103.00;4120699;28;20715;-88
2022/04/25 01:17:56;;;;;;;45.70;35.10;;;;;;;11.50;100.00;97103.00;4118665;28;21247;-88
2022/04/25 01:19:59;;;;;;;45.70;34.40;;;;;;;11.50;100.00;97109.97;4108023;28;20734;-88
2022/04/25 01:22:04;;;;;;;47.70;35.10;;;;;;;11.50;99.03;97108.22;4119270;28;20675;-87
2022/04/25 01:28:52;;;;;;;46.80;35.87;;;;;;;11.47;100.00;97112.88;4118248;28;20732;-88
2022/04/25 01:30:55;;;;;;;47.67;35.00;;;;;;;11.46;99.32;97105.97;4094542;28;20634;-88
2022/04/25 01:32:58;;;;;;;44.53;34.30;;;;;;;11.47;100.00;97110.25;4120144;28;20630;-89
2022/04/25 01:35:02;;;;;;;43.73;33.13;;;;;;;11.46;100.00;97116.41;4104678;28;20677;-89
2022/04/25 01:37:07;;;;;;;54.00;34.90;;;;;;;11.47;100.00;97111.09;4124928;28;20661;-88
2022/04/25 01:39:12;;;;;;;44.73;34.37;;;;;;;11.49;99.61;97124.03;4122759;28;21249;-88
2022/04/25 01:41:15;;;;;;;47.93;34.47;;;;;;;11.48;99.71;97125.78;4119530;28;20650;-88
2022/04/25 01:43:18;;;;;;;46.57;33.63;;;;;;;11.48;99.98;97124.97;4123928;28;20638;-88
2022/04/25 01:45:22;;;;;;;44.80;34.00;;;;;;;11.47;100.00;97125.91;4120413;28;20646;-86
2022/04/25 01:47:26;;;;;;;46.20;35.20;;;;;;;11.47;100.00;97126.75;4104398;28;22925;-88
2022/04/25 01:49:29;;;;;;;43.93;34.10;;;;;;;11.48;99.77;97130.19;4118240;28;20998;-88
2022/04/25 01:51:33;;;;;;;46.47;35.33;;;;;;;11.46;99.28;97130.28;4107599;28;20737;-87
2022/04/25 01:53:36;;;;;;;45.13;34.50;;;;;;;11.47;100.00;97131.13;4121568;28;20669;-88
2022/04/25 01:55:41;;;;;;;45.10;34.93;;;;;;;11.47;100.00;97128.53;4103686;28;20652;-88
2022/04/25 01:57:44;;;;;;;44.60;33.77;;;;;;;11.46;100.00;97122.47;4105095;28;21313;-88
2022/04/25 01:59:47;;;;;;;45.10;34.23;;;;;;;11.46;100.00;97125.06;4121114;28;20650;-88
2022/04/25 02:01:51;;;;;;;45.43;34.00;;;;;;;11.45;100.00;97123.41;4101855;28;21316;-88
2022/04/25 02:03:58;;;;;;;43.20;33.40;;;;;;;11.45;100.00;97130.44;4118709;28;20702;-87
2022/04/25 02:06:01;;;;;;;42.67;33.30;;;;;;;11.45;100.00;97125.19;4102003;28;21005;-89
2022/04/25 02:08:05;;;;;;;44.83;33.20;;;;;;;11.44;100.00;97126.16;4105890;28;20639;-88
2022/04/25 02:10:09;;;;;;;42.57;33.10;;;;;;;11.45;100.00;97135.66;4105020;28;20648;-88
2022/04/25 02:12:13;;;;;;;43.00;33.47;;;;;;;11.44;98.93;97119.16;4107085;28;20625;-88
2022/04/25 02:14:17;;;;;;;43.07;33.67;;;;;;;11.44;98.81;97132.22;4102830;28;20632;-88
2022/04/25 02:16:21;;;;;;;43.40;33.80;;;;;;;11.44;100.00;97133.97;4103986;28;20638;-88
2022/04/25 02:18:24;;;;;;;43.57;34.83;;;;;;;11.45;100.00;97135.66;4118853;28;20660;-88
2022/04/25 02:20:28;;;;;;;46.20;33.27;;;;;;;11.45;99.19;97135.66;4102162;28;20642;-88
2022/04/25 02:22:34;;;;;;;43.70;33.90;;;;;;;11.45;100.00;97140.88;4117430;28;20643;-88
2022/04/25 02:24:38;;;;;;;44.33;34.47;;;;;;;11.45;99.33;97139.06;4119368;28;20655;-87
2022/04/25 02:26:41;;;;;;;44.53;33.87;;;;;;;11.44;100.00;97133.97;4107813;28;20638;-88
2022/04/25 02:28:46;;;;;;;43.77;33.20;;;;;;;11.45;99.81;97136.47;4116580;28;20729;-89
2022/04/25 02:30:51;;;;;;;46.80;35.03;;;;;;;11.44;100.00;97142.66;4101959;28;21305;-89
2022/04/25 02:32:54;;;;;;;44.93;34.13;;;;;;;11.46;100.00;97142.53;4121637;28;20674;-88
2022/04/25 02:34:57;;;;;;;42.50;33.67;;;;;;;11.46;99.40;97148.56;4108985;28;20689;-88
2022/04/25 02:37:01;;;;;;;42.83;32.93;;;;;;;11.46;100.00;97153.78;4120522;28;20667;-88
2022/04/25 02:39:04;;;;;;;43.60;32.80;;;;;;;11.46;100.00;97145.94;4118031;28;20654;-88
2022/04/25 02:41:09;;;;;;;42.50;32.37;;;;;;;11.46;99.30;97153.78;4103262;28;21222;-88
2022/04/25 02:43:13;;;;;;;44.90;34.13;;;;;;;11.45;100.00;97146.91;4106213;28;20675;-87
2022/04/25 02:45:17;;;;;;;48.03;35.67;;;;;;;11.44;100.00;97150.50;4108192;28;20669;-88
2022/04/25 02:47:20;;;;;;;43.50;33.70;;;;;;;11.43;100.00;97158.47;4110769;28;20630;-88
2022/04/25 02:49:24;;;;;;;45.50;35.03;;;;;;;11.42;98.86;97156.78;4108259;28;20629;-88
2022/04/25 02:51:27;;;;;;;42.77;33.40;;;;;;;11.40;98.97;97159.53;4124388;28;20687;-88
2022/04/25 02:53:31;;;;;;;41.33;32.70;;;;;;;11.39;99.41;97165.72;4106139;28;20671;-88
2022/04/25 02:55:34;;;;;;;46.90;32.93;;;;;;;11.37;98.59;97164.22;4111647;28;21225;-88
2022/04/25 02:57:38;;;;;;;44.60;33.67;;;;;;;11.37;98.28;97161.59;4123291;28;20746;-86
2022/04/25 02:59:43;;;;;;;44.63;33.10;;;;;;;11.36;99.58;97160.75;4121735;28;20638;-88
2022/04/25 03:01:48;;;;;;;43.83;32.20;;;;;;;11.37;100.00;97156.38;4108603;28;20751;-88
2022/04/25 03:03:52;;;;;;;43.93;33.37;;;;;;;11.37;100.00;97164.22;4121022;28;20672;-87
2022/04/25 03:05:55;;;;;;;45.20;33.53;;;;;;;11.38;99.08;97165.84;4103301;28;20631;-88
2022/04/25 03:07:58;;;;;;;41.87;31.57;;;;;;;11.38;100.00;97171.91;4107110;28;20631;-88
2022/04/25 03:10:02;;;;;;;45.93;34.40;;;;;;;11.37;100.00;97165.03;4108215;28;20706;-88
2022/04/25 03:12:06;;;;;;;43.33;33.90;;;;;;;11.37;100.00;97174.66;4108739;28;20650;-89
2022/04/25 03:14:09;;;;;;;42.70;31.73;;;;;;;11.33;99.86;97179.28;4124384;28;20658;-88
2022/04/25 03:16:12;;;;;;;45.37;33.90;;;;;;;11.33;99.53;97174.06;4124996;28;21242;-88
2022/04/25 03:18:19;;;;;;;41.97;32.37;;;;;;;11.33;100.00;97184.50;4107385;28;20663;-88
2022/04/25 03:20:23;;;;;;;44.90;33.80;;;;;;;11.32;99.87;97182.03;4119713;28;20633;-88
2022/04/25 03:22:26;;;;;;;44.47;33.30;;;;;;;11.33;99.12;97181.91;4109260;28;20643;-88
2022/04/25 03:24:30;;;;;;;41.53;32.27;;;;;;;11.35;99.73;97192.22;4109112;28;20634;-87
2022/04/25 03:26:34;;;;;;;41.03;31.83;;;;;;;11.36;99.16;97191.25;4110818;28;21273;-88
2022/04/25 03:28:37;;;;;;;37.80;30.93;;;;;;;11.35;100.00;97195.66;4107106;28;20694;-87
2022/04/25 03:30:41;;;;;;;37.70;30.27;;;;;;;11.35;99.81;97197.44;4106619;28;21238;-88
2022/04/25 03:32:46;;;;;;;37.80;29.73;;;;;;;11.35;99.36;97195.66;4107143;28;20640;-89
2022/04/25 03:34:51;;;;;;;38.03;29.23;;;;;;;11.35;99.32;97197.44;4120539;28;20637;-88
2022/04/25 03:36:56;;;;;;;40.37;31.80;;;;;;;11.33;99.73;97204.56;4123475;28;20630;-88
2022/04/25 03:38:59;;;;;;;46.00;31.20;;;;;;;11.31;99.87;97202.09;4108570;28;21577;-88
2022/04/25 03:41:03;;;;;;;39.90;30.50;;;;;;;11.33;100.00;97209.78;4104267;28;20650;-87
2022/04/25 03:43:06;;;;;;;38.63;30.70;;;;;;;11.32;99.53;97208.13;4119484;28;20701;-87
2022/04/25 03:45:10;;;;;;;42.07;32.17;;;;;;;11.31;98.66;97206.50;4117508;28;20630;-87
2022/04/25 03:47:14;;;;;;;40.57;30.83;;;;;;;11.32;98.92;97213.34;4121430;28;20700;-86
2022/04/25 03:49:17;;;;;;;40.40;30.70;;;;;;;11.32;100.00;97218.56;4118989;28;20642;-88
2022/04/25 03:51:23;;;;;;;38.60;30.83;;;;;;;11.30;100.00;97225.72;4111880;28;20639;-88
2022/04/25 03:53:27;;;;;;;40.00;31.13;;;;;;;11.30;98.68;97220.50;4113717;28;20671;-86
2022/04/25 03:57:51;;;;;;;38.00;30.10;;;;;;;11.31;99.47;97222.16;4115424;28;20643;-87
2022/04/25 03:59:54;;;;;;;36.10;29.30;;;;;;;11.31;99.72;97222.97;4112041;28;20674;-86
2022/04/25 04:01:57;;;;;;;39.17;30.00;;;;;;;11.30;97.92;97226.53;4124873;28;20617;-88
2022/04/25 04:04:04;;;;;;;36.97;28.77;;;;;;;11.30;97.82;97221.31;4112459;28;20648;-88
2022/04/25 04:06:12;;;;;;;39.40;30.40;;;;;;;11.31;98.93;97232.59;4105192;28;20628;-87
2022/04/25 04:08:17;;;;;;;38.70;30.40;;;;;;;11.30;98.37;97230.94;4125132;28;20647;-87
2022/04/25 04:10:21;;;;;;;40.43;31.13;;;;;;;11.29;99.62;97230.13;4111348;28;21036;-88
2022/04/25 04:12:26;;;;;;;36.40;29.27;;;;;;;11.27;98.74;97233.81;4096741;28;21206;-88
2022/04/25 04:14:29;;;;;;;34.40;27.17;;;;;;;11.28;99.48;97238.91;4105021;28;20747;-88
2022/04/25 04:16:33;;;;;;;36.40;27.67;;;;;;;11.26;97.81;97233.94;4108420;28;20627;-88
2022/04/25 04:18:39;;;;;;;33.90;27.47;;;;;;;11.25;99.85;97238.34;4112610;28;20657;-88
2022/04/25 04:20:43;;;;;;;33.00;26.90;;;;;;;11.26;98.65;97240.00;4127229;28;20689;-88
2022/04/25 04:22:46;;;;;;;31.90;27.20;;;;;;;11.25;100.00;97242.75;4107911;28;20741;-88
2022/04/25 04:24:51;;;;;;;34.57;26.10;;;;;;;11.22;98.62;97238.59;4110524;28;20627;-88
2022/04/25 04:26:55;;;;;;;29.60;25.57;;;;;;;11.21;99.82;97247.38;4123571;28;20643;-88
2022/04/25 04:28:59;;;;;;;34.13;27.07;;;;;;;11.22;98.91;97256.06;4124077;28;20647;-88
2022/04/25 04:31:02;;;;;;;34.37;27.37;;;;;;;11.21;99.04;97257.81;4108138;28;20642;-88
2022/04/25 04:33:07;;;;;;;34.83;27.80;;;;;;;11.23;99.05;97255.91;4120053;28;20624;-88
2022/04/25 04:35:12;;;;;;;37.40;28.70;;;;;;;11.23;99.59;97255.91;4107504;28;20662;-87
2022/04/25 04:37:14;;;;;;;37.40;29.13;;;;;;;11.21;98.91;97255.19;4107226;28;20699;-88
2022/04/25 04:39:18;;;;;;;40.80;30.87;;;;;;;11.24;99.26;97264.56;4106229;28;20639;-88
2022/04/25 04:41:23;;;;;;;37.57;29.90;;;;;;;11.23;98.13;97261.13;4108515;28;20651;-88
2022/04/25 04:43:26;;;;;;;36.60;28.30;;;;;;;11.24;98.75;97261.97;4111670;28;20733;-89
2022/04/25 04:45:30;;;;;;;35.30;28.13;;;;;;;11.24;99.76;97257.56;4109104;28;20693;-89
2022/04/25 04:47:34;;;;;;;35.90;27.30;;;;;;;11.23;97.90;97266.38;4120335;28;20648;-88
2022/04/25 04:49:38;;;;;;;31.80;25.77;;;;;;;11.13;97.96;97252.41;4118785;28;20728;-89
2022/04/25 04:51:42;;;;;;;32.97;26.33;;;;;;;11.08;98.03;97259.81;4106286;28;20658;-88
2022/04/25 04:53:45;;;;;;;32.17;25.70;;;;;;;11.03;99.11;97261.13;4106127;28;20681;-88
2022/04/25 04:55:48;;;;;;;34.37;29.17;;;;;;;11.03;97.54;97267.19;4104551;28;20645;-88
2022/04/25 04:57:55;;;;;;;32.10;27.30;;;;;;;11.01;98.64;97266.47;4106143;28;20713;-88
2022/04/25 04:59:58;;;;;;;32.50;26.40;;;;;;;10.96;98.56;97268.66;4104260;28;20655;-89
2022/04/25 05:02:02;;;;;;;33.83;26.93;;;;;;;10.93;98.62;97279.34;4106637;28;20645;-88
2022/04/25 05:04:06;;;;;;;33.10;25.90;;;;;;;10.95;98.60;97282.66;4106386;28;20637;-88
2022/04/25 05:06:10;;;;;;;31.57;25.20;;;;;;;10.92;97.11;97275.06;4105572;28;20673;-87
2022/04/25 05:08:13;;;;;;;33.90;26.50;;;;;;;10.90;98.54;97278.78;4119852;28;21463;-94
2022/04/25 05:10:17;;;;;;;34.90;28.10;;;;;;;10.92;98.96;97288.13;4121908;28;20670;-90
2022/04/25 05:12:20;;;;;;;40.07;30.03;;;;;;;11.04;99.43;97297.53;4105725;28;21681;-85
2022/04/25 05:14:25;;;;;;;43.00;32.07;;;;;;;11.19;98.56;97293.66;4107709;28;21108;-86
2022/04/25 05:16:29;;;;;;;41.70;31.90;;;;;;;11.30;98.76;97299.63;4106161;28;20745;-85
2022/04/25 05:18:33;;;;;;;39.60;31.47;;;;;;;11.37;99.49;97298.16;4106420;28;20642;-86
2022/04/25 05:20:36;;;;;;;37.70;31.03;;;;;;;11.44;99.31;97311.53;4104973;28;20652;-85
2022/04/25 05:22:41;;;;;;;40.33;32.53;;;;;;;11.49;98.95;97305.00;4103063;28;21083;-85
2022/04/25 05:24:44;;;;;;;40.37;31.30;;;;;;;11.54;98.08;97317.66;4122345;28;20673;-85
2022/04/25 05:26:48;;;;;;;43.47;33.07;;;;;;;11.56;99.28;97318.34;4108757;28;21205;-85
2022/04/25 05:28:51;;;;;;;44.93;33.27;;;;;;;11.59;98.94;97318.94;4111114;28;20731;-85
2022/04/25 05:30:56;;;;;;;43.00;33.13;;;;;;;11.62;99.28;97323.91;4121920;28;20708;-85
2022/04/25 05:33:02;;;;;;;42.23;31.57;;;;;;;11.64;98.03;97323.78;4124962;28;20626;-85
2022/04/25 05:35:07;;;;;;;41.40;31.47;;;;;;;11.66;98.53;97314.84;4110190;28;21376;-85
2022/04/25 05:37:10;;;;;;;41.03;32.50;;;;;;;11.71;97.97;97317.06;4110870;28;20639;-85
2022/04/25 05:39:15;;;;;;;39.60;30.20;;;;;;;11.69;98.80;97321.59;4121143;28;20671;-93
2022/04/25 05:41:19;;;;;;;37.97;29.17;;;;;;;11.67;98.13;97326.13;4121554;28;20662;-94
2022/04/25 05:43:24;;;;;;;53.60;41.07;;;;;;;11.69;99.57;97321.59;4083666;28;20631;-93
2022/04/25 05:45:27;;;;;;;40.60;30.60;;;;;;;11.75;97.90;97326.31;4122758;28;20720;-91
2022/04/25 05:47:33;;;;;;;40.93;32.43;;;;;;;11.80;97.33;97323.16;4103793;28;20999;-88
2022/04/25 05:51:59;;;;;;;39.60;30.83;;;;;;;11.82;99.00;97334.31;4122503;28;20683;-86
2022/04/25 05:54:03;;;;;;;41.60;33.20;;;;;;;11.88;97.35;97339.00;4121618;28;20658;-84
2022/04/25 05:56:06;;;;;;;42.43;32.10;;;;;;;11.93;96.93;97343.84;4106844;28;21108;-85
2022/04/25 05:58:14;;;;;;;40.80;31.90;;;;;;;11.96;96.91;97349.63;4107891;28;20634;-85
2022/04/25 06:00:18;;;;;;;40.50;31.07;;;;;;;12.02;97.84;97346.47;4104837;28;20672;-85
2022/04/25 06:02:21;;;;;;;38.90;31.47;;;;;;;12.08;96.57;97348.56;4124078;28;20636;-85
2022/04/25 06:04:26;;;;;;;41.77;32.43;;;;;;;12.22;95.55;97353.44;4111928;28;20667;-85
2022/04/25 06:06:32;;;;;;;40.10;31.23;;;;;;;12.40;96.32;97352.69;4122521;28;20638;-86
2022/04/25 06:08:36;;;;;;;40.53;32.30;;;;;;;12.62;95.64;97362.09;4104633;28;20667;-85
2022/04/25 06:10:40;;;;;;;41.50;33.27;;;;;;;12.72;95.02;97372.44;4108462;28;20635;-85
2022/04/25 06:12:45;;;;;;;38.57;32.77;;;;;;;12.83;93.19;97363.66;4104213;28;20667;-87
2022/04/25 06:14:48;;;;;;;42.87;35.13;;;;;;;13.13;93.18;97361.75;4109632;28;20711;-91
2022/04/25 06:16:52;;;;;;;42.13;32.80;;;;;;;13.26;92.73;97364.88;4105404;28;20638;-94
2022/04/25 06:18:55;;;;;;;42.57;33.07;;;;;;;13.23;92.04;97359.97;4119380;28;20644;-90
2022/04/25 06:21:00;;;;;;;39.60;32.70;;;;;;;13.30;91.41;97361.84;4123605;28;20668;-90
2022/04/25 06:23:07;;;;;;;40.43;32.47;;;;;;;13.43;90.62;97366.84;4124479;28;20639;-91
2022/04/25 06:25:11;;;;;;;38.07;31.23;;;;;;;13.51;89.70;97372.19;4107295;28;20657;-90
2022/04/25 06:27:14;;;;;;;35.90;30.03;;;;;;;13.40;88.82;97367.94;4127094;28;20680;-90
2022/04/25 06:29:18;;;;;;;36.47;30.80;;;;;;;13.49;90.67;97363.66;4125921;28;20655;-90
2022/04/25 06:31:22;;;;;;;35.53;30.90;;;;;;;13.44;89.03;97366.69;4112705;28;20625;-90
2022/04/25 06:33:25;;;;;;;40.20;32.70;;;;;;;13.59;90.85;97367.06;4111732;28;20652;-91
2022/04/25 06:35:30;;;;;;;38.70;33.43;;;;;;;13.82;90.30;97364.81;4099086;28;20642;-91
2022/04/25 06:37:34;;;;;;;38.03;31.07;;;;;;;14.05;87.41;97368.75;4119626;28;20643;-87
2022/04/25 06:39:40;;;;;;;37.30;30.83;;;;;;;14.27;88.59;97368.41;4122016;28;20627;-87
2022/04/25 06:41:43;;;;;;;38.47;31.70;;;;;;;14.50;86.59;97365.25;4118036;28;20666;-87
2022/04/25 06:43:46;;;;;;;36.73;31.20;;;;;;;14.84;86.56;97374.16;4119361;28;20637;-85
2022/04/25 06:45:50;;;;;;;38.37;31.30;;;;;;;14.92;87.54;97380.31;4104674;28;21252;-86
2022/04/25 06:47:53;;;;;;;37.10;30.33;;;;;;;14.93;87.98;97376.72;4126001;28;21312;-88
2022/04/25 06:49:57;;;;;;;38.40;31.97;;;;;;;15.14;87.19;97372.03;4127315;28;20743;-87
2022/04/25 06:52:02;;;;;;;34.17;29.93;;;;;;;15.26;83.63;97378.69;4128492;28;20627;-87
2022/04/25 06:54:07;;;;;;;33.57;29.20;;;;;;;15.11;84.87;97381.03;4125490;28;20654;-87
2022/04/25 06:56:10;;;;;;;34.03;29.80;;;;;;;14.97;85.91;97385.94;4121754;28;20627;-87
2022/04/25 06:58:13;;;;;;;33.80;29.80;;;;;;;14.85;87.24;97379.25;4110635;28;20635;-87
2022/04/25 07:00:19;;;;;;;34.20;30.40;;;;;;;14.78;85.57;97382.66;4110413;28;21300;-87
2022/04/25 07:02:39;;;;;;;39.70;35.50;;;;;;;14.79;87.01;97382.50;4106674;28;20794;-92
2022/04/25 07:04:43;;;;;;;77.07;60.77;;;;;;;14.97;86.68;97380.69;4103308;28;20634;-92
2022/04/25 07:06:46;;;;;;;39.20;31.83;;;;;;;15.04;87.29;97388.81;4103958;28;20676;-91
2022/04/25 07:08:53;;;;;;;33.80;30.10;;;;;;;14.95;84.92;97385.28;4087678;28;20644;-91
2022/04/25 07:10:58;;;;;;;35.10;29.47;;;;;;;14.92;87.42;97385.56;4113454;28;20637;-91
2022/04/25 07:13:01;;;;;;;36.27;29.50;;;;;;;14.90;86.27;97384.06;4110543;28;20657;-90
2022/04/25 07:15:05;;;;;;;32.27;28.30;;;;;;;14.83;82.49;97383.03;4121077;28;20641;-92
2022/04/25 07:17:09;;;;;;;31.50;28.20;;;;;;;14.82;83.99;97389.22;4110375;28;21058;-91
2022/04/25 07:19:12;;;;;;;33.30;28.30;;;;;;;14.83;85.18;97391.72;4123207;28;20642;-91
2022/04/25 07:30:37;;;;;;;30.30;26.33;;;;;;;14.79;81.16;97385.13;4110830;28;20737;-91
2022/04/25 07:32:42;;;;;;;30.30;27.00;;;;;;;15.13;83.38;97391.38;4108168;28;20644;-90
2022/04/25 07:34:47;;;;;;;30.23;26.47;;;;;;;15.64;83.17;97387.09;4130027;28;20676;-91
2022/04/25 07:36:53;;;;;;;29.40;26.20;;;;;;;16.05;78.79;97400.38;4128413;28;20627;-91
2022/04/25 07:38:56;;;;;;;28.40;25.30;;;;;;;16.15;77.95;97398.47;4114922;28;21251;-90
2022/04/25 07:41:01;;;;;;;27.97;24.97;;;;;;;16.13;79.09;97395.16;4133218;28;20665;-90
2022/04/25 07:43:23;;;;;;;29.58;26.55;;;;;;;15.95;78.99;97398.81;4120648;28;20793;-90
2022/04/25 07:45:27;;;;;;;30.30;26.70;;;;;;;15.79;79.43;97390.84;4127489;28;20189;-88
2022/04/25 07:47:32;;;;;;;26.60;23.63;;;;;;;15.72;79.05;97397.66;4127112;28;20657;-89
2022/04/25 07:49:36;;;;;;;23.00;20.70;;;;;;;16.09;76.28;97401.72;4145070;28;20673;-89
2022/04/25 07:51:41;;;;;;;22.03;19.70;;;;;;;16.21;73.65;97395.22;4127943;28;20927;-89
2022/04/25 07:53:44;;;;;;;20.67;18.57;;;;;;;16.10;74.11;97398.09;4132624;28;21087;-90
2022/04/25 07:55:48;;;;;;;24.67;22.07;;;;;;;15.89;76.20;97399.44;4112607;28;21254;-89
2022/04/25 07:57:52;;;;;;;21.03;18.90;;;;;;;15.71;75.23;97394.22;4117579;28;21207;-91
2022/04/25 07:59:56;;;;;;;21.90;19.70;;;;;;;15.62;76.03;97391.66;4124540;28;21039;-91
2022/04/25 08:02:00;;;;;;;23.60;21.23;;;;;;;15.76;75.68;97394.59;4121080;28;21479;-91
2022/04/25 08:04:04;;;;;;;24.67;22.07;;;;;;;16.06;77.20;97394.13;4125828;28;21080;-91
2022/04/25 08:06:08;;;;;;;19.00;17.10;;;;;;;15.97;71.44;97392.44;4108655;28;20625;-91
2022/04/25 08:08:13;;;;;;;15.53;14.03;;;;;;;15.78;72.02;97391.81;4104841;28;20639;-89
2022/04/25 08:10:17;;;;;;;16.00;14.40;;;;;;;15.66;71.57;97388.56;4106251;28;20647;-90
2022/04/25 08:19:25;;;;;;;29.67;26.47;;;;;;;15.51;78.24;97406.88;4109801;28;20655;-87
2022/04/25 08:21:29;;;;;;;30.70;25.77;;;;;;;15.50;78.22;97402.56;4120101;28;20656;-87
2022/04/25 08:23:32;;;;;;;26.73;23.93;;;;;;;15.51;78.61;97402.41;4099411;28;21108;-86
2022/04/25 08:25:36;;;;;;;27.17;24.37;;;;;;;15.61;78.04;97406.63;4106420;28;20643;-88
2022/04/25 08:27:40;;;;;;;26.23;23.43;;;;;;;15.97;79.30;97410.03;4117270;28;21318;-86
2022/04/25 08:29:48;;;;;;;24.23;21.73;;;;;;;16.25;77.00;97409.72;4105279;28;20675;-87
2022/04/25 08:31:52;;;;;;;24.50;21.97;;;;;;;16.58;76.46;97417.63;4107299;28;21235;-87
2022/04/25 08:33:55;;;;;;;21.47;19.17;;;;;;;17.07;77.25;97415.03;4128389;28;20635;-87
2022/04/25 08:35:59;;;;;;;20.77;18.67;;;;;;;17.44;74.17;97408.38;4128564;28;20647;-87
2022/04/25 08:38:02;;;;;;;19.20;17.20;;;;;;;17.40;71.64;97409.69;4112620;28;20673;-87
2022/04/25 08:40:07;;;;;;;21.25;19.25;;;;;;;17.45;75.64;97417.09;4107742;28;20757;-85
2022/04/25 08:42:10;;;;;;;21.00;18.93;;;;;;;17.80;74.25;97418.44;4105340;28;20231;-87
2022/04/25 08:44:34;;;;;;;16.73;15.23;;;;;;;18.22;73.10;97421.72;4107372;28;20659;-88
2022/04/25 08:46:41;;;;;;;15.83;14.23;;;;;;;18.26;70.09;97421.22;4114035;28;20680;-88
2022/04/25 08:48:45;;;;;;;15.93;14.43;;;;;;;18.41;70.09;97424.81;4122920;28;20681;-88
2022/04/25 08:50:55;;;;;;;17.17;15.40;;;;;;;18.58;68.72;97421.97;4122893;28;20635;-87
2022/04/25 08:52:59;;;;;;;16.87;15.17;;;;;;;18.69;69.86;97428.69;4125905;28;21156;-88
2022/04/25 08:55:04;;;;;;;24.63;22.03;;;;;;;18.74;70.55;97427.19;4121827;28;20639;-88
2022/04/25 08:57:07;;;;;;;18.07;16.13;;;;;;;18.83;72.46;97430.63;4124329;28;20632;-87
2022/04/25 08:59:11;;;;;;;17.63;15.93;;;;;;;18.93;71.17;97426.78;4106487;28;20644;-88
2022/04/25 09:01:15;;;;;;;17.40;15.67;;;;;;;19.13;70.01;97425.38;4109271;28;20646;-88
2022/04/25 09:03:20;;;;;;;15.70;14.20;;;;;;;19.34;69.87;97431.69;4112316;28;20632;-88
2022/04/25 09:05:23;;;;;;;16.33;14.83;;;;;;;19.47;69.98;97430.13;4108034;28;20631;-89
2022/04/25 09:07:29;;;;;;;15.53;14.03;;;;;;;19.62;69.13;97436.31;4105759;28;20645;-89
2022/04/25 09:09:33;;;;;;;15.10;13.60;;;;;;;19.62;67.19;97435.47;4123840;28;21498;-88
2022/04/25 09:13:59;;;;;;;13.83;12.60;;;;;;;19.90;65.75;97448.03;4121076;28;21043;-85
2022/04/25 09:16:03;;;;;;;14.00;12.70;;;;;;;20.06;63.15;97445.25;4105947;28;20641;-85
2022/04/25 09:18:11;;;;;;;15.63;14.13;;;;;;;20.11;63.21;97449.00;4106563;28;20640;-85
2022/04/25 09:20:22;;;;;;;14.27;12.43;;;;;;;19.74;65.10;97447.31;4104316;28;20731;-87
2022/04/25 09:22:32;;;;;;;12.77;11.50;;;;;;;19.83;63.74;97449.72;4102207;28;20687;-86
2022/04/25 09:24:37;;;;;;;11.30;10.30;;;;;;;19.95;62.22;97449.16;4116834;28;20644;-86
2022/04/25 09:26:42;;;;;;;12.33;11.03;;;;;;;20.06;64.38;97450.56;4105330;28;21090;-86
2022/04/25 09:28:47;;;;;;;11.90;10.80;;;;;;;20.20;63.56;97450.59;4101924;28;20732;-85
2022/04/25 09:30:57;;;;;;;12.67;11.40;;;;;;;20.32;63.21;97456.28;4104541;28;20641;-85
2022/04/25 09:33:01;;;;;;;12.37;11.27;;;;;;;20.27;60.83;97461.31;4120331;28;20667;-85
2022/04/25 09:35:28;;;;;;;10.17;9.17;;;;;;;20.25;59.68;97456.19;4106117;28;20646;-87
2022/04/25 09:37:44;;;;;;;10.95;9.95;;;;;;;20.19;59.46;97456.91;4103668;28;21307;-86
2022/04/25 09:39:47;;;;;;;12.07;10.97;;;;;;;20.26;63.02;97462.31;4121812;28;20212;-87
2022/04/25 09:41:50;;;;;;;11.10;10.10;;;;;;;20.40;64.18;97455.22;4121275;28;20662;-85
2022/04/25 09:43:59;;;;;;;11.20;10.20;;;;;;;20.46;62.37;97454.47;4108912;28;20640;-85
2022/04/25 09:46:04;;;;;;;12.07;10.90;;;;;;;20.53;64.92;97450.09;4122087;28;20643;-85
2022/04/25 09:48:12;;;;;;;11.33;10.33;;;;;;;20.41;62.55;97448.06;4103908;28;20686;-85
2022/04/25 09:50:16;;;;;;;10.60;9.50;;;;;;;20.46;61.26;97443.88;4106626;28;21334;-86
2022/04/25 09:52:54;;;;;;;11.67;10.60;;;;;;;20.29;58.73;97440.75;4103962;28;20757;-85
2022/04/25 09:55:10;;;;;;;12.90;11.70;;;;;;;20.19;61.65;97446.31;4120255;28;20644;-85
2022/04/25 09:57:28;;;;;;;12.47;11.37;;;;;;;20.36;63.20;97447.78;4105202;28;20640;-85
2022/04/25 09:59:43;;;;;;;12.43;11.33;;;;;;;20.58;66.56;97445.09;4117137;28;20640;-86